OIKQ  Dayrestan Airport

Add Bookmark

Iran

Status
Operational
Latitude Longitude
26° 45' 16" N 55° 54' 8" E
26.754601 55.902401
Local (DST + 5) UTC (GMT + 4)
Jul 24, 2014 10:12 Jul 24, 2014 17:42
Sunrise-Sunset Local UTC
Begin Civil Twilight 05:40 01:10
Sunrise 06:05 01:35
Sunset 07:40 15:10
End Civil Twilight 08:05 15:35

Current Weather

METAR Observed MVFR
OIKQ 241700Z 23006KT 5000 HZ SKC 33/28 Q0994 Thu, Jul 24, 2014 @ 17:00 UTC
(42 Minutes ago)
Marginal Visual Flight Rules

Decoded METAR

Wind Visibility Clouds Conditions
230° at 6 knots (11 kph) 5000 meters
  • Clear skies
  • Haze
Temperatures Readings Precipitation
Current Temp 33°C (91°F)
Dewpoint 28°C (82°F)
Heat Index 45°C (113°F)
Humidity 75%
Altimeter 29.35"Hg
Sea Level Pressure 994mb
Field Elevation 39.37'
None Recorded

Additional weather within a 92.6km radius of OIKQ

Map ICAO Location
OIKB 69.8km N (042°)

24 Hour Weather History

Loading
-

24 Hour Weather Graphs

Loading
-

CheckWX.com is intended as a tool to help pilots better visualize weather data. It is not intended as a substitute for an official weather briefing obtained from a Flight Service Station. CheckWX.com does not meet the FAA requirements for an official pre-flight weather briefing. Therefore, it's important that pilots still call and obtain an official FSS pre-flight weather briefing.